Time;durP1;ratioP1;P1;durP2;ratioP2;P2;SDS_P1;SDS_P2;PMS_P1;PMS_P2;Temp;Humidity;BMP_temperature;BMP_pressure;BME280_temperature;BME280_humidity;BME280_pressure;Samples;Min_cycle;Max_cycle;Signal;HPM_P1;HPM_P2
2020/12/14 00:01:51;;;;;;;;;;;24.50;84.40;;;;;;1801878;78;20204;-78
2020/12/14 00:04:21;;;;;;;;;;;24.40;84.40;;;;;;1832043;77;20206;-77
2020/12/14 00:06:51;;;;;;;;;;;24.50;84.60;;;;;;1826249;77;20191;-77
2020/12/14 00:09:25;;;;;;;;;;;24.40;84.70;;;;;;1833414;77;20132;-77
2020/12/14 00:11:57;;;;;;;;;;;24.40;84.80;;;;;;1822629;76;20447;-77
2020/12/14 00:14:29;;;;;;;;;;;24.40;84.90;;;;;;1803590;78;20271;-77
2020/12/14 00:16:59;;;;;;;;;;;24.40;85.00;;;;;;1792803;78;20166;-77
2020/12/14 00:19:29;;;;;;;;;;;24.30;85.10;;;;;;1841880;76;20448;-77
2020/12/14 00:21:59;;;;;;;;;;;24.40;85.30;;;;;;1846407;77;20232;-77
2020/12/14 00:24:30;;;;;;;;;;;24.40;85.70;;;;;;1853817;77;20492;-78
2020/12/14 00:26:59;;;;;;;;;;;24.40;85.50;;;;;;1859041;76;20175;-77
2020/12/14 00:29:29;;;;;;;;;;;24.40;85.50;;;;;;1842613;76;20143;-78
2020/12/14 00:31:59;;;;;;;;;;;24.40;85.10;;;;;;1828765;77;20134;-77
2020/12/14 00:34:31;;;;;;;;;;;24.50;84.50;;;;;;1843746;76;20466;-75
2020/12/14 00:37:03;;;;;;;;;;;24.60;84.40;;;;;;1858286;77;20210;-77
2020/12/14 00:39:37;;;;;;;;;;;24.70;84.00;;;;;;1841438;77;20494;-78
2020/12/14 00:42:07;;;;;;;;;;;24.80;84.20;;;;;;1839753;76;20221;-77
2020/12/14 00:44:37;;;;;;;;;;;24.90;84.90;;;;;;1848113;77;20255;-78
2020/12/14 00:49:57;;;;;;;;;;;25.00;81.90;;;;;;1883643;75;20206;-77
2020/12/14 00:52:28;;;;;;;;;;;25.10;81.50;;;;;;1869206;75;20466;-77
2020/12/14 00:55:12;;;;;;;;;;;;;;;;;;;;;
2020/12/14 00:57:44;;;;;;;;;;;25.30;80.20;;;;;;1879233;74;20187;-77
2020/12/14 01:00:14;;;;;;;;;;;25.50;80.00;;;;;;1884631;75;20194;-78
2020/12/14 01:02:44;;;;;;;;;;;25.50;78.80;;;;;;1867757;76;20241;-79
2020/12/14 01:05:14;;;;;;;;;;;25.60;79.10;;;;;;1887198;74;20230;-77
2020/12/14 01:07:44;;;;;;;;;;;25.60;79.00;;;;;;1852607;75;20271;-74
2020/12/14 01:10:14;;;;;;;;;;;25.70;78.80;;;;;;1858555;76;20260;-76
2020/12/14 01:12:43;;;;;;;;;;;25.70;78.70;;;;;;1892004;74;20242;-75
2020/12/14 01:15:14;;;;;;;;;;;25.80;78.30;;;;;;1889869;74;20214;-75
2020/12/14 01:17:44;;;;;;;;;;;25.80;78.10;;;;;;1893989;74;20282;-75
2020/12/14 01:20:14;;;;;;;;;;;25.90;78.20;;;;;;1886776;74;20194;-76
2020/12/14 01:22:45;;;;;;;;;;;25.90;77.80;;;;;;1888203;75;20277;-74
2020/12/14 01:25:16;;;;;;;;;;;26.00;78.30;;;;;;1889851;74;20288;-75
2020/12/14 01:27:50;;;;;;;;;;;26.00;78.30;;;;;;1888064;75;20206;-75
2020/12/14 01:30:28;;;;;;;;;;;26.10;78.30;;;;;;1890662;75;20114;-74
2020/12/14 01:32:54;;;;;;;;;;;26.10;78.00;;;;;;1833173;76;20325;-74
2020/12/14 01:35:25;;;;;;;;;;;26.20;77.70;;;;;;1852506;76;20173;-74
2020/12/14 01:37:55;;;;;;;;;;;26.20;76.90;;;;;;1847126;76;20181;-73
2020/12/14 01:40:46;;;;;;;;;;;26.20;76.70;;;;;;1826729;77;20228;-75
2020/12/14 01:43:11;;;;;;;;;;;26.20;76.80;;;;;;1860304;76;20681;-73
2020/12/14 01:45:41;;;;;;;;;;;26.30;76.70;;;;;;1886469;74;20269;-74
2020/12/14 01:48:12;;;;;;;;;;;26.30;76.40;;;;;;1884289;74;20180;-75
2020/12/14 01:50:42;;;;;;;;;;;26.40;76.40;;;;;;1868461;76;20258;-75
2020/12/14 01:53:15;;;;;;;;;;;26.40;76.20;;;;;;1867994;76;20149;-75
2020/12/14 01:55:47;;;;;;;;;;;26.40;76.10;;;;;;1868156;75;20211;-74
2020/12/14 01:58:17;;;;;;;;;;;26.40;75.90;;;;;;1872405;75;20183;-76
2020/12/14 02:00:47;;;;;;;;;;;26.50;75.70;;;;;;1859672;76;20456;-76
2020/12/14 02:03:18;;;;;;;;;;;26.50;75.50;;;;;;1868546;75;20214;-75
2020/12/14 02:05:51;;;;;;;;;;;26.50;75.50;;;;;;1867264;76;20963;-75
2020/12/14 02:08:20;;;;;;;;;;;26.50;75.60;;;;;;1870220;75;20287;-76
2020/12/14 02:10:55;;;;;;;;;;;26.60;76.00;;;;;;1863935;75;20245;-75
2020/12/14 02:13:26;;;;;;;;;;;26.60;75.60;;;;;;1867292;75;20278;-76
2020/12/14 02:15:56;;;;;;;;;;;26.70;75.60;;;;;;1863958;76;20153;-76
2020/12/14 02:18:28;;;;;;;;;;;26.70;75.60;;;;;;1853897;76;20186;-77
2020/12/14 02:20:58;;;;;;;;;;;26.80;75.50;;;;;;1860124;75;20200;-76
2020/12/14 02:23:27;;;;;;;;;;;26.80;75.30;;;;;;1867455;76;20487;-76
2020/12/14 02:26:00;;;;;;;;;;;26.90;75.10;;;;;;1826474;77;20327;-77
2020/12/14 02:28:30;;;;;;;;;;;27.00;74.90;;;;;;1863132;76;20673;-76
2020/12/14 02:31:00;;;;;;;;;;;27.00;74.80;;;;;;1821499;77;20262;-77
2020/12/14 02:33:32;;;;;;;;;;;27.00;74.80;;;;;;1845588;76;20248;-77
2020/12/14 02:36:02;;;;;;;;;;;27.00;74.50;;;;;;1820322;77;20203;-77
2020/12/14 02:38:32;;;;;;;;;;;27.10;74.50;;;;;;1868767;75;20607;-77
2020/12/14 02:41:02;;;;;;;;;;;27.20;74.50;;;;;;1865913;76;20240;-76
2020/12/14 02:43:38;;;;;;;;;;;27.20;74.40;;;;;;1862752;76;20542;-77
2020/12/14 02:46:05;;;;;;;;;;;27.20;74.10;;;;;;1864167;75;20212;-77
2020/12/14 02:48:41;;;;;;;;;;;27.30;74.10;;;;;;1854558;75;20188;-80
2020/12/14 02:51:14;;;;;;;;;;;27.30;74.10;;;;;;1867864;75;20245;-80
2020/12/14 02:54:00;;;;;;;;;;;27.40;73.80;;;;;;1856180;75;20201;-79
2020/12/14 02:59:14;;;;;;;;;;;27.50;73.30;;;;;;1821809;78;20234;-78
2020/12/14 03:01:44;;;;;;;;;;;27.60;72.50;;;;;;1834433;77;20285;-79
2020/12/14 03:04:14;;;;;;;;;;;27.60;73.00;;;;;;1833011;78;20618;-80
2020/12/14 03:06:45;;;;;;;;;;;27.70;72.90;;;;;;1837075;78;20267;-79
2020/12/14 03:09:16;;;;;;;;;;;27.70;72.50;;;;;;1827421;77;20220;-80
2020/12/14 03:11:46;;;;;;;;;;;27.80;72.50;;;;;;1832202;78;20526;-78
2020/12/14 03:14:17;;;;;;;;;;;27.80;72.40;;;;;;1835256;78;20218;-78
2020/12/14 03:16:48;;;;;;;;;;;27.90;71.80;;;;;;1839094;76;20259;-78
2020/12/14 03:19:19;;;;;;;;;;;27.90;72.10;;;;;;1796555;79;20313;-78
2020/12/14 03:21:49;;;;;;;;;;;28.00;72.00;;;;;;1794137;78;20241;-77
2020/12/14 03:24:20;;;;;;;;;;;28.10;71.80;;;;;;1837329;76;20292;-78
2020/12/14 03:26:51;;;;;;;;;;;28.10;71.80;;;;;;1797158;79;20295;-79
2020/12/14 03:29:22;;;;;;;;;;;28.30;72.00;;;;;;1835592;76;20231;-79
2020/12/14 03:31:52;;;;;;;;;;;28.40;70.60;;;;;;1839483;76;20319;-79
2020/12/14 03:34:21;;;;;;;;;;;28.40;71.00;;;;;;1831721;77;20272;-79
2020/12/14 03:36:52;;;;;;;;;;;28.50;70.60;;;;;;1873563;74;20222;-79
2020/12/14 03:39:22;;;;;;;;;;;28.60;70.40;;;;;;1868683;76;20483;-80
2020/12/14 03:41:51;;;;;;;;;;;28.70;70.70;;;;;;1862235;76;20350;-81
2020/12/14 03:44:21;;;;;;;;;;;28.80;70.90;;;;;;1895903;74;20475;-80
2020/12/14 03:46:51;;;;;;;;;;;28.80;70.20;;;;;;1901263;75;20201;-80
2020/12/14 03:49:24;;;;;;;;;;;28.90;70.10;;;;;;1862318;76;20223;-80
2020/12/14 03:51:55;;;;;;;;;;;29.00;69.80;;;;;;1901817;75;20183;-80
2020/12/14 03:54:25;;;;;;;;;;;29.00;69.60;;;;;;1897986;74;20505;-80
2020/12/14 03:56:57;;;;;;;;;;;29.10;69.70;;;;;;1894398;75;20161;-80
2020/12/14 03:59:26;;;;;;;;;;;29.10;69.30;;;;;;1899526;75;20230;-81
2020/12/14 04:01:56;;;;;;;;;;;29.20;69.10;;;;;;1900228;74;20647;-79
2020/12/14 04:04:26;;;;;;;;;;;29.30;67.80;;;;;;1899525;74;20965;-79
2020/12/14 04:06:57;;;;;;;;;;;29.40;68.40;;;;;;1899983;74;20126;-80
2020/12/14 04:09:26;;;;;;;;;;;29.40;68.30;;;;;;1899397;74;20206;-79
2020/12/14 04:11:56;;;;;;;;;;;29.60;68.20;;;;;;1900504;75;20175;-80
2020/12/14 04:14:26;;;;;;;;;;;29.70;67.90;;;;;;1900310;74;20465;-82
2020/12/14 04:16:56;;;;;;;;;;;29.80;67.70;;;;;;1898317;74;20155;-82
2020/12/14 04:19:26;;;;;;;;;;;29.90;68.10;;;;;;1904096;74;20159;-81
2020/12/14 04:21:59;;;;;;;;;;;29.90;67.20;;;;;;1897395;75;20422;-80
2020/12/14 04:24:27;;;;;;;;;;;30.00;66.90;;;;;;1903631;75;20257;-83
2020/12/14 04:26:57;;;;;;;;;;;30.10;66.90;;;;;;1895920;75;20174;-69
2020/12/14 04:29:30;;;;;;;;;;;30.10;66.90;;;;;;1898818;74;20147;-69
2020/12/14 04:32:00;;;;;;;;;;;30.20;65.10;;;;;;1857883;76;20200;-69
2020/12/14 04:34:30;;;;;;;;;;;30.20;66.00;;;;;;1868528;75;20207;-68
2020/12/14 04:36:59;;;;;;;;;;;30.20;65.30;;;;;;1899830;73;20208;-69
2020/12/14 04:39:29;;;;;;;;;;;30.20;65.00;;;;;;1916923;74;20200;-68
2020/12/14 04:41:59;;;;;;;;;;;30.30;64.60;;;;;;1928769;74;20169;-68
2020/12/14 04:44:30;;;;;;;;;;;30.30;65.20;;;;;;1933071;74;20184;-69
2020/12/14 04:47:00;;;;;;;;;;;30.40;65.00;;;;;;1935916;74;20192;-69
2020/12/14 04:49:30;;;;;;;;;;;30.40;64.70;;;;;;1932564;74;20130;-70
2020/12/14 04:52:02;;;;;;;;;;;30.50;63.90;;;;;;1932891;74;20476;-70
2020/12/14 04:54:33;;;;;;;;;;;30.50;63.60;;;;;;1933977;74;20125;-70
2020/12/14 04:57:04;;;;;;;;;;;30.50;63.40;;;;;;1933549;74;20153;-70
2020/12/14 04:59:34;;;;;;;;;;;30.50;63.70;;;;;;1931371;74;20189;-70
2020/12/14 05:02:05;;;;;;;;;;;30.50;63.60;;;;;;1932512;74;20259;-70
2020/12/14 05:04:37;;;;;;;;;;;30.50;64.20;;;;;;1887772;75;20183;-70
2020/12/14 05:07:07;;;;;;;;;;;30.50;61.80;;;;;;1884092;75;20217;-69
2020/12/14 05:09:37;;;;;;;;;;;30.60;62.80;;;;;;1888481;75;20206;-70
2020/12/14 05:12:08;;;;;;;;;;;30.70;63.50;;;;;;1854415;77;20193;-70
2020/12/14 05:14:38;;;;;;;;;;;30.70;63.70;;;;;;1854380;77;20177;-69
2020/12/14 05:17:09;;;;;;;;;;;30.70;62.20;;;;;;1859240;76;20197;-70
2020/12/14 05:19:39;;;;;;;;;;;30.70;63.10;;;;;;1859793;76;20582;-69
2020/12/14 05:22:09;;;;;;;;;;;30.60;62.60;;;;;;1889774;75;20447;-70
2020/12/14 05:24:39;;;;;;;;;;;30.50;62.40;;;;;;1875713;74;20477;-69
2020/12/14 05:27:08;;;;;;;;;;;30.40;62.30;;;;;;1928348;73;20205;-69
2020/12/14 05:29:39;;;;;;;;;;;30.30;62.80;;;;;;1912811;73;20183;-69
2020/12/14 05:32:16;;;;;;;;;;;30.20;63.60;;;;;;1932172;74;20168;-69
2020/12/14 05:34:46;;;;;;;;;;;30.10;63.70;;;;;;1930584;74;20157;-69
2020/12/14 05:37:16;;;;;;;;;;;30.00;63.20;;;;;;1923835;73;20177;-68
2020/12/14 05:39:46;;;;;;;;;;;29.90;63.70;;;;;;1932663;74;20145;-69
2020/12/14 05:42:18;;;;;;;;;;;29.80;64.40;;;;;;1922159;74;20528;-69
2020/12/14 05:44:49;;;;;;;;;;;29.80;64.60;;;;;;1933418;74;20152;-69
2020/12/14 05:47:21;;;;;;;;;;;29.80;64.80;;;;;;1896742;74;20160;-69
2020/12/14 05:49:51;;;;;;;;;;;29.90;64.80;;;;;;1894199;74;20592;-70
2020/12/14 05:52:27;;;;;;;;;;;30.00;64.60;;;;;;1855845;76;20860;-70
2020/12/14 05:54:57;;;;;;;;;;;30.20;62.80;;;;;;1855863;76;20222;-70
2020/12/14 05:57:37;;;;;;;;;;;30.40;61.80;;;;;;1858866;76;20269;-70
2020/12/14 06:00:08;;;;;;;;;;;30.70;63.20;;;;;;1878574;76;20557;-68
2020/12/14 06:02:42;;;;;;;;;;;30.80;61.40;;;;;;1893978;75;20198;-68
2020/12/14 06:05:19;;;;;;;;;;;31.00;61.60;;;;;;1890466;75;20205;-68
2020/12/14 06:07:49;;;;;;;;;;;31.10;61.80;;;;;;1885633;75;20152;-70
2020/12/14 06:10:20;;;;;;;;;;;31.30;59.70;;;;;;1855099;76;20722;-70
2020/12/14 06:12:56;;;;;;;;;;;31.40;60.00;;;;;;1854465;77;20503;-70
2020/12/14 06:15:26;;;;;;;;;;;31.50;61.00;;;;;;1884168;76;20215;-70
2020/12/14 06:17:56;;;;;;;;;;;31.60;60.60;;;;;;1883840;76;20300;-70
2020/12/14 06:20:26;;;;;;;;;;;31.60;61.10;;;;;;1886982;76;20152;-69
2020/12/14 06:23:00;;;;;;;;;;;31.60;60.30;;;;;;1891162;75;20225;-70
2020/12/14 06:25:30;;;;;;;;;;;31.50;60.50;;;;;;1888910;75;20202;-69
2020/12/14 06:28:03;;;;;;;;;;;31.40;60.80;;;;;;1886102;76;20155;-69
2020/12/14 06:30:39;;;;;;;;;;;31.20;61.10;;;;;;1850431;77;20221;-70
2020/12/14 06:33:18;;;;;;;;;;;31.00;61.30;;;;;;1889342;75;20207;-69
2020/12/14 06:35:57;;;;;;;;;;;30.90;61.50;;;;;;1889086;75;20190;-69
2020/12/14 06:38:30;;;;;;;;;;;30.80;62.10;;;;;;1852222;77;20248;-69
2020/12/14 06:41:00;;;;;;;;;;;30.70;60.40;;;;;;1880719;76;20554;-69
2020/12/14 06:43:32;;;;;;;;;;;30.80;61.50;;;;;;1864281;76;20193;-70
2020/12/14 06:46:04;;;;;;;;;;;30.80;62.20;;;;;;1885563;75;21020;-69
2020/12/14 06:48:35;;;;;;;;;;;30.80;61.80;;;;;;1849100;76;20170;-68
2020/12/14 06:51:06;;;;;;;;;;;30.90;62.50;;;;;;1888100;75;20242;-70
2020/12/14 06:53:37;;;;;;;;;;;31.00;61.30;;;;;;1896215;75;20237;-69
2020/12/14 06:56:07;;;;;;;;;;;31.00;60.60;;;;;;1900096;75;20233;-70
2020/12/14 06:58:39;;;;;;;;;;;31.10;61.30;;;;;;1927168;74;20597;-69
2020/12/14 07:01:10;;;;;;;;;;;31.10;61.90;;;;;;1933549;72;20430;-69
2020/12/14 07:03:46;;;;;;;;;;;31.10;60.30;;;;;;1928332;73;20434;-70
2020/12/14 07:06:31;;;;;;;;;;;31.20;60.90;;;;;;1934340;74;20238;-70
2020/12/14 07:08:53;;;;;;;;;;;31.10;60.00;;;;;;1931824;73;20250;-70
2020/12/14 07:11:36;;;;;;;;;;;31.10;60.70;;;;;;1935958;74;20444;-70
2020/12/14 07:14:14;;;;;;;;;;;31.10;61.00;;;;;;1926752;74;20145;-70
2020/12/14 07:16:45;;;;;;;;;;;31.20;60.00;;;;;;1928680;74;20153;-70
2020/12/14 07:19:15;;;;;;;;;;;31.20;60.60;;;;;;1931945;74;20203;-70
2020/12/14 07:21:49;;;;;;;;;;;31.30;60.40;;;;;;1921431;74;20239;-70
2020/12/14 07:24:20;;;;;;;;;;;31.30;59.90;;;;;;1923526;74;20192;-70
2020/12/14 07:26:51;;;;;;;;;;;31.30;59.00;;;;;;1923405;73;20145;-70
2020/12/14 07:29:21;;;;;;;;;;;31.40;59.10;;;;;;1925571;74;20149;-70
2020/12/14 07:31:53;;;;;;;;;;;31.50;58.80;;;;;;1922751;74;20180;-71
2020/12/14 07:34:23;;;;;;;;;;;31.50;59.90;;;;;;1923303;74;20177;-70
2020/12/14 07:36:53;;;;;;;;;;;31.50;59.30;;;;;;1924030;74;20421;-71
2020/12/14 07:39:23;;;;;;;;;;;31.40;59.00;;;;;;1916575;74;20569;-70
2020/12/14 07:41:53;;;;;;;;;;;31.40;59.50;;;;;;1923900;74;20508;-70
2020/12/14 07:44:24;;;;;;;;;;;31.40;58.50;;;;;;1922756;73;20428;-70
2020/12/14 07:46:54;;;;;;;;;;;31.40;59.40;;;;;;1923772;74;20170;-70
2020/12/14 07:49:24;;;;;;;;;;;31.50;59.30;;;;;;1921266;73;20260;-70
2020/12/14 07:52:02;;;;;;;;;;;31.50;60.30;;;;;;1912453;74;20527;-70
2020/12/14 07:54:37;;;;;;;;;;;31.40;59.30;;;;;;1896185;75;20240;-69
2020/12/14 07:57:27;;;;;;;;;;;31.40;59.40;;;;;;1895598;75;20150;-69
2020/12/14 07:59:45;;;;;;;;;;;31.40;59.20;;;;;;1890196;75;20199;-69
2020/12/14 08:02:26;;;;;;;;;;;31.40;59.60;;;;;;1899087;75;20162;-69
2020/12/14 08:04:49;;;;;;;;;;;31.30;59.70;;;;;;1894749;75;20197;-70
2020/12/14 08:07:19;;;;;;;;;;;31.30;59.80;;;;;;1890883;75;20146;-69
2020/12/14 08:09:49;;;;;;;;;;;31.40;59.90;;;;;;1901796;75;20233;-69
2020/12/14 08:12:19;;;;;;;;;;;31.30;59.80;;;;;;1893902;75;20174;-68
2020/12/14 08:14:50;;;;;;;;;;;31.30;59.30;;;;;;1895103;75;20249;-69
2020/12/14 08:17:20;;;;;;;;;;;31.30;59.20;;;;;;1895212;75;20197;-69
2020/12/14 08:19:51;;;;;;;;;;;31.30;59.80;;;;;;1898247;75;20221;-69
2020/12/14 08:22:24;;;;;;;;;;;31.30;59.70;;;;;;1900436;75;20174;-70
2020/12/14 08:24:58;;;;;;;;;;;31.30;59.70;;;;;;1867760;76;20164;-69
2020/12/14 08:27:29;;;;;;;;;;;31.30;59.80;;;;;;1896238;75;20186;-69
2020/12/14 08:30:00;;;;;;;;;;;31.30;60.00;;;;;;1900062;75;20422;-70
2020/12/14 08:32:33;;;;;;;;;;;31.30;60.00;;;;;;1900863;75;20304;-70
2020/12/14 08:35:04;;;;;;;;;;;31.30;60.00;;;;;;1897665;75;20241;-69
2020/12/14 08:37:35;;;;;;;;;;;31.30;59.60;;;;;;1872680;75;20158;-70
2020/12/14 08:40:04;;;;;;;;;;;31.30;60.10;;;;;;1926693;73;20219;-69
2020/12/14 08:42:34;;;;;;;;;;;31.30;59.50;;;;;;1897852;75;20174;-70
2020/12/14 08:45:08;;;;;;;;;;;31.30;60.00;;;;;;1894211;75;20210;-70
2020/12/14 08:47:38;;;;;;;;;;;31.30;59.50;;;;;;1882250;75;20875;-70
2020/12/14 08:50:09;;;;;;;;;;;31.30;59.30;;;;;;1883119;75;20173;-70
2020/12/14 08:52:40;;;;;;;;;;;31.30;59.20;;;;;;1906748;74;20243;-70
2020/12/14 08:55:11;;;;;;;;;;;31.30;59.20;;;;;;1913059;74;20228;-70
2020/12/14 08:57:50;;;;;;;;;;;31.30;58.90;;;;;;1914519;74;20138;-70
2020/12/14 09:00:22;;;;;;;;;;;31.30;59.00;;;;;;1920202;74;20647;-71
2020/12/14 09:02:52;;;;;;;;;;;31.30;60.00;;;;;;1924621;74;20154;-72
2020/12/14 09:05:23;;;;;;;;;;;31.20;58.90;;;;;;1913854;73;20167;-71
2020/12/14 09:07:53;;;;;;;;;;;31.30;59.70;;;;;;1923520;74;20201;-69
2020/12/14 09:10:26;;;;;;;;;;;31.20;59.50;;;;;;1920479;73;20688;-70
2020/12/14 09:13:00;;;;;;;;;;;31.10;59.70;;;;;;1919606;74;20191;-70
2020/12/14 09:15:28;;;;;;;;;;;31.10;61.10;;;;;;1916364;74;20228;-69
2020/12/14 09:17:59;;;;;;;;;;;31.10;60.00;;;;;;1928549;73;20510;-70
2020/12/14 09:20:29;;;;;;;;;;;31.00;59.80;;;;;;1926749;74;20228;-70
2020/12/14 09:22:59;;;;;;;;;;;31.00;59.70;;;;;;1920188;73;20229;-70
2020/12/14 09:25:29;;;;;;;;;;;31.00;59.50;;;;;;1929150;73;20187;-70
2020/12/14 09:28:07;;;;;;;;;;;31.00;59.90;;;;;;1923076;74;20182;-70
2020/12/14 09:30:55;;;;;;;;;;;30.90;59.90;;;;;;1921042;74;20137;-70
2020/12/14 09:33:22;;;;;;;;;;;30.90;60.00;;;;;;1925566;74;20176;-70
2020/12/14 09:35:55;;;;;;;;;;;30.80;60.00;;;;;;1923092;74;20236;-70
2020/12/14 09:38:30;;;;;;;;;;;30.80;60.00;;;;;;1918235;74;20246;-70
2020/12/14 09:40:57;;;;;;;;;;;30.80;59.50;;;;;;1920335;74;20200;-70
2020/12/14 09:43:27;;;;;;;;;;;30.80;59.90;;;;;;1921074;74;20200;-70
2020/12/14 09:45:59;;;;;;;;;;;30.80;60.30;;;;;;1921177;74;20259;-70
2020/12/14 09:48:29;;;;;;;;;;;30.80;60.10;;;;;;1918670;73;20149;-70
2020/12/14 09:51:07;;;;;;;;;;;30.80;59.70;;;;;;1920599;73;20204;-69
2020/12/14 09:53:35;;;;;;;;;;;30.70;59.10;;;;;;1913693;74;20181;-70
2020/12/14 09:56:05;;;;;;;;;;;30.70;59.50;;;;;;1909767;74;20150;-70
2020/12/14 09:58:36;;;;;;;;;;;30.60;59.40;;;;;;1897061;74;20206;-71
2020/12/14 10:01:10;;;;;;;;;;;30.60;59.80;;;;;;1896811;74;20162;-70
2020/12/14 10:03:41;;;;;;;;;;;30.50;59.50;;;;;;1899703;75;20199;-70
2020/12/14 10:06:15;;;;;;;;;;;30.50;59.70;;;;;;1887007;74;20173;-71
2020/12/14 10:08:48;;;;;;;;;;;30.50;59.90;;;;;;1888083;75;20171;-70
2020/12/14 10:11:18;;;;;;;;;;;30.50;59.70;;;;;;1894688;75;20199;-69
2020/12/14 10:13:48;;;;;;;;;;;30.50;59.80;;;;;;1895799;75;20259;-69
2020/12/14 10:16:18;;;;;;;;;;;30.50;59.70;;;;;;1895171;75;20198;-69
2020/12/14 10:18:49;;;;;;;;;;;30.50;60.00;;;;;;1916917;75;20220;-69
2020/12/14 10:21:18;;;;;;;;;;;30.40;60.10;;;;;;1909848;75;20403;-69
2020/12/14 10:24:11;;;;;;;;;;;30.40;59.80;;;;;;1911413;75;20162;-70
2020/12/14 10:26:27;;;;;;;;;;;30.30;60.10;;;;;;1903892;74;20235;-70
2020/12/14 10:28:56;;;;;;;;;;;30.30;60.20;;;;;;1911214;75;20806;-70
2020/12/14 10:31:28;;;;;;;;;;;30.30;60.30;;;;;;1908724;75;20203;-69
2020/12/14 10:33:59;;;;;;;;;;;30.30;60.40;;;;;;1918240;75;20589;-69
2020/12/14 10:36:29;;;;;;;;;;;30.20;60.40;;;;;;1916306;75;20198;-69
2020/12/14 10:38:59;;;;;;;;;;;30.20;60.60;;;;;;1912911;73;20142;-69
2020/12/14 10:41:28;;;;;;;;;;;30.20;60.60;;;;;;1909002;75;20228;-68
2020/12/14 10:43:59;;;;;;;;;;;30.10;60.50;;;;;;1915655;75;20538;-69
2020/12/14 10:46:28;;;;;;;;;;;30.10;60.70;;;;;;1910412;75;20149;-69
2020/12/14 10:48:58;;;;;;;;;;;30.10;61.00;;;;;;1898944;75;20217;-69
2020/12/14 10:51:28;;;;;;;;;;;30.10;60.90;;;;;;1910501;75;20143;-70
2020/12/14 10:53:59;;;;;;;;;;;30.10;61.00;;;;;;1907322;73;20189;-70
2020/12/14 10:56:29;;;;;;;;;;;30.10;61.20;;;;;;1906094;74;20315;-72
2020/12/14 10:59:02;;;;;;;;;;;30.00;61.20;;;;;;1900609;75;20115;-71
2020/12/14 11:01:34;;;;;;;;;;;30.00;61.50;;;;;;1899811;73;20291;-71
2020/12/14 11:04:05;;;;;;;;;;;29.90;61.50;;;;;;1903384;73;20239;-70
2020/12/14 11:06:36;;;;;;;;;;;29.90;61.70;;;;;;1896198;75;20198;-70
2020/12/14 11:09:10;;;;;;;;;;;29.90;61.90;;;;;;1915307;73;20206;-71
2020/12/14 11:11:40;;;;;;;;;;;29.80;61.90;;;;;;1916034;73;20259;-71
2020/12/14 11:14:10;;;;;;;;;;;29.90;63.00;;;;;;1906332;73;20235;-70
2020/12/14 11:16:59;;;;;;;;;;;29.80;62.20;;;;;;1901642;73;20212;-70
2020/12/14 11:19:25;;;;;;;;;;;29.80;62.30;;;;;;1899342;73;20230;-70
2020/12/14 11:21:58;;;;;;;;;;;29.80;62.60;;;;;;1910755;73;20209;-70
2020/12/14 11:24:29;;;;;;;;;;;29.70;62.50;;;;;;1902652;73;20176;-70
2020/12/14 11:27:03;;;;;;;;;;;29.70;62.80;;;;;;1906123;74;20568;-71
2020/12/14 11:29:39;;;;;;;;;;;29.70;62.90;;;;;;1909692;74;20259;-70
2020/12/14 11:32:10;;;;;;;;;;;29.70;62.80;;;;;;1907582;74;20157;-70
2020/12/14 11:34:40;;;;;;;;;;;29.60;62.90;;;;;;1908741;73;20178;-69
2020/12/14 11:37:11;;;;;;;;;;;29.60;62.90;;;;;;1907949;73;20224;-70
2020/12/14 11:39:41;;;;;;;;;;;29.50;63.10;;;;;;1905418;74;20485;-70
2020/12/14 11:42:15;;;;;;;;;;;29.50;63.00;;;;;;1876600;76;20544;-70
2020/12/14 11:44:58;;;;;;;;;;;29.50;63.10;;;;;;1909970;75;20491;-69
2020/12/14 11:47:35;;;;;;;;;;;29.50;63.20;;;;;;1907177;74;20196;-70
2020/12/14 11:50:10;;;;;;;;;;;29.50;63.20;;;;;;1905802;73;20500;-70
2020/12/14 11:52:45;;;;;;;;;;;29.40;63.20;;;;;;1910523;73;20154;-69
2020/12/14 11:55:16;;;;;;;;;;;29.40;63.30;;;;;;1908708;73;20834;-70
2020/12/14 11:57:46;;;;;;;;;;;29.40;63.40;;;;;;1902565;73;20215;-69
2020/12/14 12:00:20;;;;;;;;;;;29.40;63.40;;;;;;1905203;74;20224;-69
2020/12/14 12:02:51;;;;;;;;;;;29.40;63.60;;;;;;1903226;75;20197;-69
2020/12/14 12:05:24;;;;;;;;;;;29.40;63.70;;;;;;1907581;73;20582;-70
2020/12/14 12:07:59;;;;;;;;;;;29.30;63.70;;;;;;1907745;74;20189;-69
2020/12/14 12:10:35;;;;;;;;;;;29.30;63.90;;;;;;1909213;73;20327;-70
2020/12/14 12:13:05;;;;;;;;;;;29.30;64.00;;;;;;1904938;74;20239;-70
2020/12/14 12:15:35;;;;;;;;;;;29.30;64.10;;;;;;1906555;73;20205;-69
2020/12/14 12:18:05;;;;;;;;;;;29.30;64.20;;;;;;1858088;75;20182;-70
2020/12/14 12:20:41;;;;;;;;;;;29.30;64.50;;;;;;1887094;74;20218;-69
2020/12/14 12:23:14;;;;;;;;;;;29.20;64.60;;;;;;1858448;76;20245;-69
2020/12/14 12:25:44;;;;;;;;;;;29.20;64.60;;;;;;1862290;75;20233;-69
2020/12/14 12:28:14;;;;;;;;;;;29.20;64.80;;;;;;1892269;74;20221;-69
2020/12/14 12:30:44;;;;;;;;;;;29.20;64.90;;;;;;1893629;74;20443;-69
2020/12/14 12:33:14;;;;;;;;;;;29.10;64.90;;;;;;1910946;73;20271;-69
2020/12/14 12:35:44;;;;;;;;;;;29.10;65.10;;;;;;1895645;75;20211;-69
2020/12/14 12:38:14;;;;;;;;;;;29.10;65.20;;;;;;1900849;73;20249;-69
2020/12/14 12:40:44;;;;;;;;;;;29.00;65.30;;;;;;1905228;75;20157;-70
2020/12/14 12:43:14;;;;;;;;;;;29.00;65.50;;;;;;1907715;73;20241;-70
2020/12/14 12:45:49;;;;;;;;;;;29.00;65.80;;;;;;1908571;73;20233;-68
2020/12/14 12:48:20;;;;;;;;;;;29.00;66.00;;;;;;1900566;73;20214;-69
2020/12/14 12:50:53;;;;;;;;;;;29.00;66.00;;;;;;1907077;73;20156;-68
2020/12/14 12:53:22;;;;;;;;;;;28.90;66.00;;;;;;1905683;73;20189;-68
2020/12/14 12:55:54;;;;;;;;;;;28.90;66.10;;;;;;1881326;73;20171;-79
2020/12/14 12:58:25;;;;;;;;;;;28.90;66.20;;;;;;1873011;75;20582;-79
2020/12/14 13:00:55;;;;;;;;;;;28.90;66.20;;;;;;1875358;75;20302;-79
2020/12/14 13:03:35;;;;;;;;;;;28.90;66.50;;;;;;1871560;75;20140;-80
2020/12/14 13:06:03;;;;;;;;;;;28.90;66.50;;;;;;1875247;75;20258;-79
2020/12/14 13:08:33;;;;;;;;;;;28.90;66.70;;;;;;1871891;75;20198;-78
2020/12/14 13:11:04;;;;;;;;;;;28.80;67.00;;;;;;1872743;75;20215;-80
2020/12/14 13:13:35;;;;;;;;;;;28.80;67.00;;;;;;1878695;75;20253;-80
2020/12/14 13:16:09;;;;;;;;;;;28.80;66.90;;;;;;1875915;75;20259;-78
2020/12/14 13:18:39;;;;;;;;;;;28.80;67.00;;;;;;1864028;76;20486;-79
2020/12/14 13:21:09;;;;;;;;;;;28.80;67.00;;;;;;1878446;76;20932;-79
2020/12/14 13:23:40;;;;;;;;;;;28.80;67.00;;;;;;1873139;76;20176;-78
2020/12/14 13:26:11;;;;;;;;;;;28.70;67.20;;;;;;1856342;77;20190;-81
2020/12/14 13:28:41;;;;;;;;;;;28.80;66.30;;;;;;1858995;77;20165;-80
2020/12/14 13:31:22;;;;;;;;;;;28.70;66.30;;;;;;1871955;76;20169;-81
2020/12/14 13:33:50;;;;;;;;;;;28.70;66.80;;;;;;1857154;76;20194;-80
2020/12/14 13:36:20;;;;;;;;;;;28.70;67.20;;;;;;1860233;76;20143;-81
2020/12/14 13:39:31;;;;;;;;;;;28.70;67.10;;;;;;1824547;77;20587;-81
2020/12/14 13:41:34;;;;;;;;;;;28.70;67.70;;;;;;1872739;74;20432;-82
2020/12/14 13:44:09;;;;;;;;;;;28.70;67.60;;;;;;1886914;74;20684;-80
2020/12/14 13:46:37;;;;;;;;;;;28.70;67.70;;;;;;1882885;74;20280;-80
2020/12/14 13:49:12;;;;;;;;;;;28.70;67.90;;;;;;1888595;74;20576;-79
2020/12/14 13:52:06;;;;;;;;;;;28.70;68.20;;;;;;1833593;76;20630;-79
2020/12/14 13:54:36;;;;;;;;;;;28.60;68.30;;;;;;1849817;76;20217;-78
2020/12/14 13:57:06;;;;;;;;;;;28.60;68.30;;;;;;1846902;76;20162;-79
2020/12/14 13:59:36;;;;;;;;;;;28.60;68.30;;;;;;1861651;76;20230;-79
2020/12/14 14:02:06;;;;;;;;;;;28.60;68.20;;;;;;1846072;76;20259;-79
2020/12/14 14:04:50;;;;;;;;;;;28.60;68.30;;;;;;1856714;76;20245;-78
2020/12/14 14:07:20;;;;;;;;;;;28.50;68.30;;;;;;1855681;76;20249;-80
2020/12/14 14:09:50;;;;;;;;;;;28.50;68.50;;;;;;1869514;76;20646;-78
2020/12/14 14:12:20;;;;;;;;;;;28.50;68.60;;;;;;1859194;76;20177;-80
2020/12/14 14:14:52;;;;;;;;;;;28.50;68.70;;;;;;1857223;76;20285;-80
2020/12/14 14:17:22;;;;;;;;;;;28.50;68.30;;;;;;1866913;75;20189;-78
2020/12/14 14:19:53;;;;;;;;;;;28.50;68.50;;;;;;1862351;75;20216;-78
2020/12/14 14:22:26;;;;;;;;;;;28.40;68.70;;;;;;1860594;76;20342;-79
2020/12/14 14:24:56;;;;;;;;;;;28.40;68.60;;;;;;1824731;79;20508;-78
2020/12/14 14:27:29;;;;;;;;;;;28.40;68.50;;;;;;1844623;78;20170;-80
2020/12/14 14:30:17;;;;;;;;;;;28.40;69.30;;;;;;1859512;76;20349;-80
2020/12/14 14:32:47;;;;;;;;;;;28.40;68.50;;;;;;1865430;76;20242;-80
2020/12/14 14:35:17;;;;;;;;;;;28.30;68.60;;;;;;1871426;76;20158;-80
2020/12/14 14:37:47;;;;;;;;;;;28.30;68.70;;;;;;1834787;76;20263;-80
2020/12/14 14:40:18;;;;;;;;;;;28.30;69.10;;;;;;1855580;76;20246;-82
2020/12/14 14:42:50;;;;;;;;;;;28.30;69.00;;;;;;1864724;75;20196;-79
2020/12/14 14:45:19;;;;;;;;;;;28.20;69.10;;;;;;1823421;76;20203;-79
2020/12/14 14:47:50;;;;;;;;;;;28.20;69.30;;;;;;1847365;74;20201;-80
2020/12/14 14:50:26;;;;;;;;;;;28.20;69.10;;;;;;1900142;74;20477;-80